Time;durP1;ratioP1;P1;durP2;ratioP2;P2;SDS_P1;SDS_P2;PMS_P1;PMS_P2;Temp;Humidity;BMP_temperature;BMP_pressure;BME280_temperature;BME280_humidity;BME280_pressure;Samples;Min_cycle;Max_cycle;Signal;HPM_P1;HPM_P2
2022/06/10 00:01:07;;;;;;;0.00;0.00;;;12.70;99.90;;;;;;5018807;28;20056;-68
2022/06/10 00:03:35;;;;;;;0.00;0.00;;;12.60;99.90;;;;;;5018640;28;20060;-69
2022/06/10 00:06:04;;;;;;;0.00;0.00;;;12.60;99.90;;;;;;5019386;28;20120;-68
2022/06/10 00:08:34;;;;;;;0.00;0.00;;;12.60;99.90;;;;;;5018997;28;20111;-67
2022/06/10 00:11:00;;;;;;;0.00;0.00;;;12.60;99.90;;;;;;5019562;28;20099;-67
2022/06/10 00:13:31;;;;;;;0.00;0.00;;;12.60;99.90;;;;;;5019048;28;20046;-67
2022/06/10 00:15:57;;;;;;;0.00;0.00;;;12.60;99.90;;;;;;5019217;28;20037;-67
2022/06/10 00:18:25;;;;;;;0.00;0.00;;;12.60;99.90;;;;;;5018139;28;20407;-68
2022/06/10 00:20:51;;;;;;;0.00;0.00;;;12.60;99.90;;;;;;5019068;28;20049;-68
2022/06/10 00:23:17;;;;;;;0.00;0.00;;;12.50;99.90;;;;;;5018691;28;20719;-68
2022/06/10 00:25:43;;;;;;;0.00;0.00;;;12.60;99.90;;;;;;5018605;28;20061;-67
2022/06/10 00:28:09;;;;;;;0.00;0.00;;;12.50;99.90;;;;;;5019296;28;20081;-68
2022/06/10 00:30:36;;;;;;;0.03;0.03;;;12.50;99.90;;;;;;5019237;28;20045;-68
2022/06/10 00:33:02;;;;;;;0.00;0.00;;;12.50;99.90;;;;;;5018477;28;20702;-68
2022/06/10 00:35:29;;;;;;;0.00;0.00;;;12.50;99.90;;;;;;5018350;28;20042;-68
2022/06/10 00:37:55;;;;;;;0.00;0.00;;;12.40;99.90;;;;;;5018829;28;20041;-67
2022/06/10 00:40:30;;;;;;;0.00;0.00;;;12.40;99.90;;;;;;5019327;28;20124;-68
2022/06/10 00:42:56;;;;;;;0.00;0.00;;;12.40;99.90;;;;;;5018497;28;20081;-67
2022/06/10 00:45:50;;;;;;;0.00;0.00;;;12.40;99.90;;;;;;5026628;28;20128;-68
2022/06/10 00:48:21;;;;;;;0.00;0.00;;;12.40;99.90;;;;;;5022961;28;20084;-68
2022/06/10 00:50:48;;;;;;;0.00;0.00;;;12.30;99.90;;;;;;5023060;28;20046;-68
2022/06/10 00:53:16;;;;;;;0.00;0.00;;;12.30;99.90;;;;;;5023290;28;20095;-68
2022/06/10 00:55:44;;;;;;;0.00;0.00;;;12.30;99.90;;;;;;5022786;28;20099;-66
2022/06/10 00:58:20;;;;;;;0.00;0.00;;;12.30;99.90;;;;;;5021333;28;20119;-67
2022/06/10 01:00:46;;;;;;;0.00;0.00;;;12.30;99.90;;;;;;5022661;28;20049;-65
2022/06/10 01:03:12;;;;;;;0.00;0.00;;;12.30;99.90;;;;;;5021688;28;20057;-68
2022/06/10 01:05:38;;;;;;;0.00;0.00;;;12.30;99.90;;;;;;5022614;28;20420;-68
2022/06/10 01:08:08;;;;;;;0.00;0.00;;;12.30;99.90;;;;;;5022290;28;20045;-68
2022/06/10 01:10:46;;;;;;;0.05;0.05;;;12.20;99.90;;;;;;5028732;22;20415;-68
2022/06/10 01:13:49;;;;;;;0.10;0.10;;;12.20;99.90;;;;;;5025161;28;20050;-68
2022/06/10 01:16:33;;;;;;;0.00;0.00;;;12.20;99.90;;;;;;5021846;28;20403;-69
2022/06/10 01:19:18;;;;;;;0.00;0.00;;;12.20;99.90;;;;;;5020805;28;20566;-68
2022/06/10 01:22:02;;;;;;;0.03;0.03;;;12.20;99.90;;;;;;5022830;28;20041;-67
2022/06/10 01:24:47;;;;;;;0.00;0.00;;;12.20;99.90;;;;;;5021713;28;20061;-69
2022/06/10 01:27:48;;;;;;;0.00;0.00;;;12.10;99.90;;;;;;5022778;28;20045;-68
2022/06/10 01:30:19;;;;;;;0.00;0.00;;;12.10;99.90;;;;;;5012012;28;20057;-68
2022/06/10 01:33:22;;;;;;;0.00;0.00;;;12.10;99.90;;;;;;5022117;28;20056;-68
2022/06/10 01:36:06;;;;;;;0.00;0.00;;;12.10;99.90;;;;;;5008743;28;20679;-68
2022/06/10 01:38:38;;;;;;;0.32;0.10;;;12.00;99.90;;;;;;5022019;28;20405;-69
2022/06/10 01:41:25;;;;;;;0.00;0.00;;;11.90;99.90;;;;;;5022593;28;20081;-68
2022/06/10 01:44:08;;;;;;;0.00;0.00;;;12.00;99.90;;;;;;5021540;28;20131;-68
2022/06/10 01:46:37;;;;;;;0.00;0.00;;;11.90;99.90;;;;;;5011009;28;20053;-69
2022/06/10 01:49:17;;;;;;;0.10;0.10;;;11.90;99.90;;;;;;5000188;28;20516;-69
2022/06/10 01:52:07;;;;;;;0.00;0.00;;;11.90;99.90;;;;;;5001138;28;20056;-69
2022/06/10 01:55:15;;;;;;;0.00;0.00;;;11.60;99.90;;;;;;4999650;28;20074;-68
2022/06/10 01:57:51;;;;;;;0.00;0.00;;;11.80;99.90;;;;;;4979356;28;20123;-69
2022/06/10 02:00:20;;;;;;;0.00;0.00;;;11.80;99.90;;;;;;4979260;28;20116;-69
2022/06/10 02:02:58;;;;;;;0.10;0.10;;;11.80;99.90;;;;;;4992315;28;20054;-69
2022/06/10 02:05:27;;;;;;;0.10;0.05;;;11.80;99.90;;;;;;5001634;28;20046;-70
2022/06/10 02:08:11;;;;;;;0.00;0.00;;;11.70;99.90;;;;;;5002014;28;20046;-68
2022/06/10 02:10:51;;;;;;;0.20;0.10;;;11.70;99.90;;;;;;5000924;28;20100;-68
2022/06/10 02:13:23;;;;;;;0.00;0.00;;;11.70;99.90;;;;;;5001715;28;20878;-70
2022/06/10 02:15:54;;;;;;;0.00;0.00;;;11.70;99.90;;;;;;5000600;28;20045;-68
2022/06/10 02:18:45;;;;;;;0.08;0.08;;;11.60;99.90;;;;;;5001542;28;20104;-68
2022/06/10 02:21:26;;;;;;;0.00;0.00;;;11.60;99.90;;;;;;5001012;28;20042;-69
2022/06/10 02:24:10;;;;;;;0.00;0.00;;;11.60;99.90;;;;;;5002051;28;20064;-68
2022/06/10 02:26:38;;;;;;;0.00;0.00;;;11.50;99.90;;;;;;4999839;28;20050;-69
2022/06/10 02:29:09;;;;;;;0.00;0.00;;;11.60;99.90;;;;;;5001149;28;20053;-68
2022/06/10 02:31:40;;;;;;;0.00;0.00;;;11.40;99.90;;;;;;5000406;28;20044;-68
2022/06/10 02:34:07;;;;;;;0.00;0.00;;;11.40;99.90;;;;;;5000950;28;20608;-68
2022/06/10 02:37:00;;;;;;;0.00;0.00;;;11.40;99.90;;;;;;5001128;28;20041;-69
2022/06/10 02:39:43;;;;;;;0.00;0.00;;;11.30;99.90;;;;;;5000732;28;20049;-69
2022/06/10 02:42:20;;;;;;;0.00;0.00;;;11.30;99.90;;;;;;5001072;28;20054;-68
2022/06/10 02:45:12;;;;;;;0.00;0.00;;;11.30;99.90;;;;;;5002924;28;20053;-67
2022/06/10 02:48:09;;;;;;;0.00;0.00;;;11.30;99.90;;;;;;5013200;28;20053;-69
2022/06/10 02:50:35;;;;;;;0.00;0.00;;;11.30;99.90;;;;;;5020886;28;20650;-68
2022/06/10 02:53:03;;;;;;;0.03;0.03;;;11.30;99.90;;;;;;5020446;28;20034;-68
2022/06/10 02:55:30;;;;;;;0.00;0.00;;;11.20;99.90;;;;;;5019938;28;20180;-68
2022/06/10 03:04:05;;;;;;;0.00;0.00;;;11.20;99.90;;;;;;5020538;28;20053;-68
2022/06/10 03:06:49;;;;;;;0.00;0.00;;;11.20;99.90;;;;;;5019828;28;20065;-69
2022/06/10 03:09:33;;;;;;;0.20;0.10;;;11.20;99.90;;;;;;5019419;28;20069;-68
2022/06/10 03:12:17;;;;;;;0.00;0.00;;;11.20;99.90;;;;;;5020356;28;20412;-68
2022/06/10 03:15:01;;;;;;;0.00;0.00;;;11.20;99.90;;;;;;5018691;28;20172;-68
2022/06/10 03:17:42;;;;;;;0.32;0.30;;;11.20;99.90;;;;;;5019362;28;20299;-69
2022/06/10 03:20:41;;;;;;;0.10;0.10;;;11.20;99.90;;;;;;5020023;28;20041;-67
2022/06/10 03:23:32;;;;;;;0.00;0.00;;;11.20;99.90;;;;;;5019423;28;20072;-68
2022/06/10 03:26:28;;;;;;;0.10;0.00;;;11.20;99.90;;;;;;5019978;28;20033;-68
2022/06/10 03:29:23;;;;;;;0.05;0.05;;;11.20;99.90;;;;;;5020004;28;20095;-69
2022/06/10 03:31:58;;;;;;;0.00;0.00;;;11.20;99.90;;;;;;5005234;28;20057;-68
2022/06/10 03:34:33;;;;;;;0.20;0.20;;;11.20;99.90;;;;;;5020011;28;20051;-69
2022/06/10 03:37:02;;;;;;;0.00;0.00;;;11.20;99.90;;;;;;5019249;28;20056;-68
2022/06/10 03:39:28;;;;;;;0.10;0.10;;;11.30;99.90;;;;;;5019479;28;20037;-68
2022/06/10 03:42:15;;;;;;;0.00;0.00;;;11.20;99.90;;;;;;5020195;28;20044;-68
2022/06/10 03:44:42;;;;;;;0.20;0.10;;;11.20;99.90;;;;;;5016336;28;20545;-68
2022/06/10 03:47:15;;;;;;;0.05;0.05;;;11.20;99.90;;;;;;5008028;28;20412;-68
2022/06/10 03:50:03;;;;;;;0.00;0.00;;;11.20;99.90;;;;;;5015499;28;20057;-68
2022/06/10 03:52:31;;;;;;;0.00;0.00;;;11.20;99.90;;;;;;4999615;28;20050;-67
2022/06/10 03:54:57;;;;;;;0.00;0.00;;;11.30;99.90;;;;;;5000320;28;20049;-67
2022/06/10 03:57:22;;;;;;;0.00;0.00;;;11.30;99.90;;;;;;4998806;28;20034;-68
2022/06/10 03:59:49;;;;;;;0.08;0.08;;;11.30;99.90;;;;;;5000099;28;20050;-67
2022/06/10 04:02:14;;;;;;;0.00;0.00;;;11.40;99.90;;;;;;4999614;28;20046;-67
2022/06/10 04:04:42;;;;;;;0.00;0.00;;;11.40;99.90;;;;;;5000047;28;20065;-67
2022/06/10 04:07:11;;;;;;;0.00;0.00;;;11.40;99.90;;;;;;4999658;28;20045;-68
2022/06/10 04:09:37;;;;;;;0.00;0.00;;;11.60;99.90;;;;;;4999283;28;20060;-67
2022/06/10 04:12:03;;;;;;;0.60;0.10;;;11.70;99.90;;;;;;4999808;28;20053;-68
2022/06/10 04:14:29;;;;;;;0.00;0.00;;;11.90;99.90;;;;;;4998576;28;20046;-68
2022/06/10 04:16:54;;;;;;;0.05;0.05;;;11.90;99.90;;;;;;4999260;28;20034;-67
2022/06/10 04:19:21;;;;;;;0.00;0.00;;;11.90;99.90;;;;;;4998772;28;20178;-68
2022/06/10 04:21:47;;;;;;;0.00;0.00;;;11.80;99.90;;;;;;4999234;28;20052;-67
2022/06/10 04:24:12;;;;;;;1.17;0.10;;;11.80;99.90;;;;;;4999474;28;20552;-67
2022/06/10 04:26:38;;;;;;;0.00;0.00;;;11.80;99.90;;;;;;4999302;28;20084;-67
2022/06/10 04:29:04;;;;;;;0.00;0.00;;;11.80;99.90;;;;;;4999416;28;20439;-68
2022/06/10 04:31:30;;;;;;;0.00;0.00;;;11.80;99.90;;;;;;4998122;28;20121;-69
2022/06/10 04:33:56;;;;;;;0.00;0.00;;;11.80;99.90;;;;;;4999655;28;20085;-65
2022/06/10 04:36:21;;;;;;;0.00;0.00;;;11.80;99.90;;;;;;5014490;28;20042;-69
2022/06/10 04:38:47;;;;;;;0.00;0.00;;;11.90;99.90;;;;;;4999576;28;20057;-69
2022/06/10 04:41:14;;;;;;;0.10;0.00;;;12.00;99.90;;;;;;4997416;28;20042;-68
2022/06/10 04:43:40;;;;;;;0.00;0.00;;;12.00;99.90;;;;;;4999801;28;20117;-68
2022/06/10 04:46:08;;;;;;;0.00;0.00;;;12.10;99.90;;;;;;5008684;28;20531;-68
2022/06/10 04:48:34;;;;;;;0.00;0.00;;;12.20;99.90;;;;;;4998396;28;20205;-68
2022/06/10 04:51:01;;;;;;;0.00;0.00;;;12.30;99.90;;;;;;4999698;28;20457;-68
2022/06/10 04:53:27;;;;;;;0.00;0.00;;;12.60;99.90;;;;;;4999106;28;20049;-68
2022/06/10 04:55:53;;;;;;;0.00;0.00;;;13.00;99.90;;;;;;4999530;28;20084;-69
2022/06/10 04:58:18;;;;;;;0.00;0.00;;;13.30;99.90;;;;;;4997974;28;20660;-68
2022/06/10 05:00:50;;;;;;;0.00;0.00;;;13.60;99.90;;;;;;4999159;28;20041;-68
2022/06/10 05:03:16;;;;;;;0.00;0.00;;;13.80;99.90;;;;;;4997856;28;20057;-68
2022/06/10 05:05:42;;;;;;;0.00;0.00;;;14.00;99.90;;;;;;4998641;28;20484;-67
2022/06/10 05:08:11;;;;;;;0.00;0.00;;;14.10;99.90;;;;;;4999626;28;20081;-68
2022/06/10 05:10:37;;;;;;;0.00;0.00;;;14.10;99.90;;;;;;4999028;28;20584;-67
2022/06/10 05:13:03;;;;;;;0.00;0.00;;;14.20;99.90;;;;;;4999267;28;20042;-68
2022/06/10 05:15:29;;;;;;;0.00;0.00;;;14.40;99.90;;;;;;4998165;28;20094;-68
2022/06/10 05:17:57;;;;;;;0.43;0.20;;;14.60;99.90;;;;;;4999132;28;20042;-68
2022/06/10 05:20:26;;;;;;;0.10;0.10;;;14.60;99.90;;;;;;4999459;28;20420;-68
2022/06/10 05:22:52;;;;;;;0.00;0.00;;;14.70;99.90;;;;;;4998131;28;20042;-68
2022/06/10 05:25:18;;;;;;;0.08;0.08;;;14.80;99.90;;;;;;4998888;28;20857;-68
2022/06/10 05:27:44;;;;;;;0.00;0.00;;;14.80;99.90;;;;;;4999308;28;20042;-68
2022/06/10 05:30:16;;;;;;;0.25;0.22;;;15.00;99.90;;;;;;5000199;28;20124;-68
2022/06/10 05:32:41;;;;;;;0.00;0.00;;;14.90;99.90;;;;;;5003096;28;20141;-64
2022/06/10 05:35:08;;;;;;;0.08;0.08;;;15.00;99.90;;;;;;5002704;28;20080;-69
2022/06/10 05:37:34;;;;;;;0.00;0.00;;;15.00;99.90;;;;;;5002350;28;20440;-68
2022/06/10 05:40:00;;;;;;;0.10;0.10;;;15.10;99.90;;;;;;5001561;28;20046;-68
2022/06/10 05:42:26;;;;;;;0.00;0.00;;;15.20;99.90;;;;;;5002292;28;20721;-68
2022/06/10 05:44:52;;;;;;;0.05;0.05;;;15.50;99.90;;;;;;5005485;28;20041;-68
2022/06/10 05:47:23;;;;;;;0.00;0.00;;;15.80;99.90;;;;;;5009190;28;20121;-68
2022/06/10 05:49:52;;;;;;;0.00;0.00;;;15.80;99.90;;;;;;5002005;28;20046;-68
2022/06/10 05:52:22;;;;;;;0.45;0.45;;;16.00;99.90;;;;;;5001031;28;20095;-67
2022/06/10 05:54:49;;;;;;;0.00;0.00;;;15.90;99.90;;;;;;5001664;28;20089;-68
2022/06/10 05:57:15;;;;;;;0.20;0.20;;;15.70;99.90;;;;;;5002286;28;20137;-64
2022/06/10 05:59:41;;;;;;;0.00;0.00;;;15.40;99.90;;;;;;5003106;28;20125;-69
2022/06/10 06:02:10;;;;;;;0.00;0.00;;;15.30;99.90;;;;;;5001191;28;20041;-69
2022/06/10 06:04:35;;;;;;;0.00;0.00;;;15.30;99.90;;;;;;5001514;28;20060;-68
2022/06/10 06:07:01;;;;;;;0.28;0.15;;;15.60;99.90;;;;;;5001967;28;20049;-68
2022/06/10 06:09:27;;;;;;;0.00;0.00;;;15.60;99.90;;;;;;5001655;28;20058;-68
2022/06/10 06:11:57;;;;;;;0.10;0.10;;;15.50;99.90;;;;;;5001179;28;20033;-68
2022/06/10 06:14:27;;;;;;;0.10;0.10;;;15.60;99.90;;;;;;5001582;28;20335;-69
2022/06/10 06:16:56;;;;;;;0.00;0.00;;;15.50;99.90;;;;;;5001064;28;20042;-70
2022/06/10 06:19:22;;;;;;;0.00;0.00;;;15.60;99.90;;;;;;5000893;28;20054;-69
2022/06/10 06:21:48;;;;;;;0.00;0.00;;;15.70;99.90;;;;;;5001177;28;20187;-68
2022/06/10 06:24:14;;;;;;;0.10;0.10;;;15.70;99.90;;;;;;5002143;28;20130;-68
2022/06/10 06:26:40;;;;;;;2.00;1.45;;;15.70;99.90;;;;;;5000246;28;20045;-69
2022/06/10 06:29:06;;;;;;;0.00;0.00;;;15.60;99.90;;;;;;5000608;28;20050;-68
2022/06/10 06:31:32;;;;;;;0.13;0.13;;;15.60;99.90;;;;;;5000658;28;20050;-68
2022/06/10 06:33:57;;;;;;;0.00;0.00;;;15.50;99.90;;;;;;5001652;28;20397;-69
2022/06/10 06:36:25;;;;;;;0.00;0.00;;;15.40;99.90;;;;;;5001091;28;20593;-69
2022/06/10 06:38:52;;;;;;;0.00;0.00;;;15.40;99.90;;;;;;5001219;28;20052;-68
2022/06/10 06:41:18;;;;;;;0.00;0.00;;;15.50;99.90;;;;;;5000385;28;20048;-69
2022/06/10 06:43:44;;;;;;;0.10;0.10;;;15.40;99.90;;;;;;5001429;28;20145;-68
2022/06/10 06:46:12;;;;;;;0.00;0.00;;;15.40;99.90;;;;;;5011188;28;20041;-68
2022/06/10 06:48:39;;;;;;;0.00;0.00;;;15.40;99.90;;;;;;5000917;28;20500;-68
2022/06/10 06:51:05;;;;;;;0.00;0.00;;;15.60;99.90;;;;;;5001058;28;20053;-68
2022/06/10 06:53:32;;;;;;;1.42;1.33;;;15.50;99.90;;;;;;5000524;28;20042;-68
2022/06/10 06:55:58;;;;;;;0.05;0.05;;;15.60;99.90;;;;;;5000836;28;20049;-68
2022/06/10 06:58:23;;;;;;;0.00;0.00;;;15.60;99.90;;;;;;5001125;28;20046;-68
2022/06/10 07:00:49;;;;;;;0.00;0.00;;;15.80;99.90;;;;;;4999687;28;20050;-69
2022/06/10 07:03:15;;;;;;;0.00;0.00;;;15.80;99.90;;;;;;5000974;28;20084;-68
2022/06/10 07:05:42;;;;;;;0.00;0.00;;;15.80;99.90;;;;;;5000950;28;20041;-64
2022/06/10 07:08:09;;;;;;;0.00;0.00;;;15.80;99.90;;;;;;5000616;28;20604;-67
2022/06/10 07:10:35;;;;;;;0.20;0.20;;;15.90;99.90;;;;;;5000119;28;20057;-69
2022/06/10 07:13:01;;;;;;;0.00;0.00;;;15.80;99.90;;;;;;4998541;28;20688;-68
2022/06/10 07:15:27;;;;;;;0.00;0.00;;;15.90;99.90;;;;;;5000030;28;20038;-68
2022/06/10 07:17:52;;;;;;;0.00;0.00;;;15.90;99.90;;;;;;5000125;28;20045;-68
2022/06/10 07:20:23;;;;;;;0.00;0.00;;;15.90;99.90;;;;;;4998376;28;20057;-67
2022/06/10 07:22:48;;;;;;;0.10;0.10;;;15.90;99.90;;;;;;5000356;28;20200;-67
2022/06/10 07:25:14;;;;;;;0.00;0.00;;;15.90;99.90;;;;;;5000855;28;21166;-67
2022/06/10 07:27:41;;;;;;;0.00;0.00;;;16.00;99.90;;;;;;4999766;28;20418;-67
2022/06/10 07:30:08;;;;;;;0.00;0.00;;;15.90;99.90;;;;;;4999047;28;20060;-67
2022/06/10 07:32:34;;;;;;;0.10;0.10;;;16.00;99.90;;;;;;4999156;28;20050;-68
2022/06/10 07:35:00;;;;;;;0.10;0.05;;;16.00;99.90;;;;;;5000066;28;20132;-67
2022/06/10 07:37:26;;;;;;;0.00;0.00;;;16.00;99.90;;;;;;4999583;28;20343;-67
2022/06/10 07:39:52;;;;;;;0.10;0.10;;;15.90;99.90;;;;;;4998400;28;20038;-69
2022/06/10 07:42:18;;;;;;;0.20;0.10;;;15.90;99.90;;;;;;5000034;28;20077;-69
2022/06/10 07:44:44;;;;;;;0.17;0.10;;;15.90;99.90;;;;;;5002855;28;20091;-69
2022/06/10 07:47:12;;;;;;;0.00;0.00;;;15.90;99.90;;;;;;5007704;28;20465;-70
2022/06/10 07:49:38;;;;;;;0.00;0.00;;;15.80;99.90;;;;;;4999641;28;20065;-68
2022/06/10 07:52:05;;;;;;;0.25;0.15;;;15.70;99.90;;;;;;4999943;28;20420;-67
2022/06/10 07:54:33;;;;;;;0.10;0.10;;;15.70;99.90;;;;;;4998236;28;20084;-67
2022/06/10 07:57:00;;;;;;;0.10;0.10;;;15.80;99.90;;;;;;4999667;28;20109;-68
2022/06/10 07:59:26;;;;;;;0.00;0.00;;;15.80;99.90;;;;;;4998612;28;20081;-67
2022/06/10 08:01:52;;;;;;;0.10;0.10;;;15.80;99.90;;;;;;4999280;28;20509;-68
2022/06/10 08:04:17;;;;;;;0.00;0.00;;;15.70;99.90;;;;;;4997493;28;20088;-67
2022/06/10 08:06:46;;;;;;;0.10;0.10;;;15.80;99.90;;;;;;4999785;28;20410;-67
2022/06/10 08:09:12;;;;;;;0.28;0.17;;;15.90;99.90;;;;;;4999553;28;20050;-68
2022/06/10 08:11:39;;;;;;;0.00;0.00;;;16.00;99.90;;;;;;4998881;28;20054;-68
2022/06/10 08:14:05;;;;;;;0.00;0.00;;;16.20;99.90;;;;;;4999265;28;20213;-68
2022/06/10 08:16:32;;;;;;;0.25;0.25;;;16.10;99.90;;;;;;4997931;28;20049;-68
2022/06/10 08:18:58;;;;;;;0.43;0.38;;;16.00;99.90;;;;;;5014532;28;20054;-67
2022/06/10 08:22:32;;;;;;;0.85;0.20;;;16.00;99.90;;;;;;4998737;28;20046;-68
2022/06/10 08:24:16;;;;;;;0.00;0.00;;;15.90;99.90;;;;;;4999786;28;20049;-69
2022/06/10 08:26:42;;;;;;;0.05;0.00;;;15.80;99.90;;;;;;4999258;28;20049;-64
2022/06/10 08:29:07;;;;;;;0.00;0.00;;;15.90;99.90;;;;;;4997852;28;20038;-68
2022/06/10 08:31:33;;;;;;;0.00;0.00;;;15.90;99.90;;;;;;4998751;28;20107;-68
2022/06/10 08:33:59;;;;;;;0.22;0.10;;;15.90;99.90;;;;;;4998629;28;20038;-67
2022/06/10 08:36:25;;;;;;;0.45;0.35;;;16.00;99.90;;;;;;4999688;28;20408;-68
2022/06/10 08:38:51;;;;;;;0.10;0.10;;;15.90;99.90;;;;;;4999398;28;20042;-68
2022/06/10 08:41:26;;;;;;;0.00;0.00;;;16.10;99.90;;;;;;4999182;28;20730;-68
2022/06/10 08:43:57;;;;;;;;;;;16.20;99.90;;;;;;5000170;28;20048;-68
2022/06/10 08:47:03;;;;;;;0.15;0.15;;;16.50;99.90;;;;;;5006512;28;19917;-68
2022/06/10 08:49:37;;;;;;;0.00;0.00;;;16.60;99.90;;;;;;5018337;28;20065;-68
2022/06/10 08:52:30;;;;;;;0.25;0.15;;;16.60;99.90;;;;;;5018882;28;20049;-67
2022/06/10 08:55:19;;;;;;;0.00;0.00;;;16.40;99.90;;;;;;5017422;28;20049;-67
2022/06/10 08:57:47;;;;;;;0.00;0.00;;;16.30;99.90;;;;;;5018881;28;20056;-67
2022/06/10 09:00:17;;;;;;;0.00;0.00;;;16.20;99.90;;;;;;5017169;28;20096;-68
2022/06/10 09:02:55;;;;;;;0.00;0.00;;;16.10;99.90;;;;;;5019458;28;20724;-68
2022/06/10 09:05:23;;;;;;;0.17;0.15;;;16.10;99.90;;;;;;5020342;28;20221;-68
2022/06/10 09:07:55;;;;;;;0.10;0.10;;;16.20;99.90;;;;;;5022584;28;20053;-68
2022/06/10 09:10:42;;;;;;;0.00;0.00;;;16.10;99.90;;;;;;5021962;28;20060;-68
2022/06/10 09:13:24;;;;;;;0.00;0.00;;;16.10;99.90;;;;;;5022773;28;20053;-67
2022/06/10 09:16:05;;;;;;;0.00;0.00;;;16.20;99.90;;;;;;5021107;28;20490;-67
2022/06/10 09:18:40;;;;;;;0.08;0.08;;;16.20;99.90;;;;;;5022077;28;20633;-68
2022/06/10 09:21:19;;;;;;;0.00;0.00;;;16.20;99.90;;;;;;5021157;28;20672;-67
2022/06/10 09:23:46;;;;;;;0.00;0.00;;;16.10;99.90;;;;;;5021695;28;20050;-67
2022/06/10 09:26:35;;;;;;;0.05;0.00;;;16.20;99.90;;;;;;5022329;28;20110;-67
2022/06/10 09:29:01;;;;;;;0.10;0.10;;;16.30;99.90;;;;;;5020400;28;20523;-68
2022/06/10 09:31:37;;;;;;;0.00;0.00;;;16.40;99.90;;;;;;5021614;28;20084;-69
2022/06/10 09:34:19;;;;;;;0.15;0.05;;;16.40;99.90;;;;;;5021603;28;20038;-66
2022/06/10 09:37:09;;;;;;;0.38;0.30;;;16.60;99.90;;;;;;5022388;28;20046;-62
2022/06/10 09:42:40;;;;;;;0.00;0.00;;;16.90;99.90;;;;;;5021608;28;20045;-68
2022/06/10 09:45:15;;;;;;;0.20;0.20;;;17.00;99.90;;;;;;5014975;28;20402;-68
2022/06/10 09:48:11;;;;;;;0.00;0.00;;;17.00;99.90;;;;;;5008924;28;20081;-68
2022/06/10 09:51:05;;;;;;;0.00;0.00;;;16.90;99.90;;;;;;5002174;28;20509;-67
2022/06/10 09:53:45;;;;;;;0.00;0.00;;;16.90;99.90;;;;;;5001849;28;20072;-67
2022/06/10 09:56:14;;;;;;;0.00;0.00;;;16.80;99.90;;;;;;5001037;28;20204;-68
2022/06/10 09:58:56;;;;;;;0.08;0.08;;;16.90;99.90;;;;;;5001321;28;20472;-79
2022/06/10 10:01:35;;;;;;;0.63;0.10;;;17.00;99.90;;;;;;5001905;28;20083;-80
2022/06/10 10:04:17;;;;;;;0.00;0.00;;;17.20;99.90;;;;;;5002052;28;20046;-80
2022/06/10 10:06:45;;;;;;;0.15;0.15;;;17.20;99.90;;;;;;5002505;28;20191;-80
2022/06/10 10:09:43;;;;;;;0.80;0.10;;;17.10;99.90;;;;;;5001566;28;20139;-79
2022/06/10 10:12:14;;;;;;;0.00;0.00;;;17.10;99.90;;;;;;5002395;28;20050;-80
2022/06/10 10:14:41;;;;;;;0.20;0.17;;;17.00;99.90;;;;;;4999928;28;20069;-80
2022/06/10 10:17:27;;;;;;;0.10;0.10;;;17.10;99.90;;;;;;4999949;28;20077;-80
2022/06/10 10:19:55;;;;;;;0.00;0.00;;;17.10;99.90;;;;;;5001757;28;20420;-80
2022/06/10 10:22:42;;;;;;;0.00;0.00;;;17.00;99.90;;;;;;5001565;28;20050;-80
2022/06/10 10:25:18;;;;;;;0.00;0.00;;;17.00;99.90;;;;;;4996993;28;20058;-77
2022/06/10 10:27:46;;;;;;;0.00;0.00;;;17.10;99.90;;;;;;5001726;28;20096;-67
2022/06/10 10:30:18;;;;;;;0.00;0.00;;;17.10;99.90;;;;;;5000119;28;20892;-70
2022/06/10 10:32:52;;;;;;;0.00;0.00;;;17.10;99.90;;;;;;5001331;28;20111;-70
2022/06/10 10:35:25;;;;;;;0.00;0.00;;;17.20;99.90;;;;;;5001426;28;20453;-69
2022/06/10 10:38:01;;;;;;;0.00;0.00;;;17.40;99.90;;;;;;5001429;28;20049;-73
2022/06/10 10:40:47;;;;;;;0.10;0.10;;;17.40;99.90;;;;;;5000199;28;20058;-72
2022/06/10 10:43:16;;;;;;;0.20;0.10;;;17.60;99.90;;;;;;5001845;28;20048;-74
2022/06/10 10:45:54;;;;;;;0.13;0.08;;;17.70;99.90;;;;;;5007881;28;20124;-59
2022/06/10 10:48:25;;;;;;;0.10;0.10;;;17.80;99.90;;;;;;5001878;28;20038;-72
2022/06/10 10:51:06;;;;;;;0.00;0.00;;;17.90;99.90;;;;;;5000698;28;20241;-72
2022/06/10 10:53:37;;;;;;;0.15;0.15;;;18.00;99.90;;;;;;5001339;28;20626;-71
2022/06/10 10:56:05;;;;;;;0.38;0.15;;;18.10;99.90;;;;;;5001230;28;20125;-72
2022/06/10 10:58:36;;;;;;;0.00;0.00;;;18.30;99.90;;;;;;5000494;28;20049;-72
2022/06/10 11:03:56;;;;;;;0.57;0.47;;;18.60;99.90;;;;;;5000687;28;20056;-66
2022/06/10 11:06:32;;;;;;;0.05;0.05;;;18.50;99.90;;;;;;5000915;28;20046;-72
2022/06/10 11:09:04;;;;;;;0.00;0.00;;;18.50;99.90;;;;;;4999834;28;20042;-68
2022/06/10 11:11:36;;;;;;;0.10;0.10;;;18.40;99.90;;;;;;5000918;28;20556;-72
2022/06/10 11:14:16;;;;;;;0.00;0.00;;;18.40;99.90;;;;;;5016150;28;20076;-70
2022/06/10 11:17:02;;;;;;;0.20;0.20;;;18.40;99.90;;;;;;5000378;28;20378;-70
2022/06/10 11:19:34;;;;;;;0.03;0.03;;;18.50;99.90;;;;;;5001404;28;20053;-65
2022/06/10 11:22:19;;;;;;;0.00;0.00;;;18.30;99.90;;;;;;5016828;28;20444;-73
2022/06/10 11:25:16;;;;;;;0.35;0.25;;;18.30;99.90;;;;;;5018582;28;20057;-73
2022/06/10 11:27:50;;;;;;;0.10;0.00;;;18.40;99.90;;;;;;4999755;28;20425;-71
2022/06/10 11:30:31;;;;;;;0.40;0.20;;;18.50;99.90;;;;;;4997647;28;20348;-72
2022/06/10 11:33:01;;;;;;;0.00;0.00;;;18.60;99.90;;;;;;5000656;28;20052;-73
2022/06/10 11:35:32;;;;;;;0.00;0.00;;;18.80;99.90;;;;;;5000080;28;20045;-75
2022/06/10 11:38:09;;;;;;;0.20;0.20;;;18.80;99.90;;;;;;5004366;28;20049;-71
2022/06/10 11:40:46;;;;;;;0.15;0.15;;;19.00;99.90;;;;;;5019084;28;20045;-72
2022/06/10 11:43:18;;;;;;;0.00;0.00;;;18.90;99.90;;;;;;5019167;28;20033;-70
2022/06/10 11:46:05;;;;;;;0.17;0.10;;;19.10;99.90;;;;;;5012444;28;20063;-71
2022/06/10 11:48:48;;;;;;;0.00;0.00;;;19.30;99.90;;;;;;4999099;28;20050;-71
2022/06/10 11:51:28;;;;;;;0.05;0.05;;;19.40;99.90;;;;;;4998778;28;20190;-71
2022/06/10 11:54:01;;;;;;;0.00;0.00;;;19.40;99.90;;;;;;4997725;28;20054;-72
2022/06/10 12:00:00;;;;;;;16.45;0.50;;;19.30;99.90;;;;;;4975516;28;20049;-71
2022/06/10 12:02:44;;;;;;;0.00;0.00;;;19.60;99.90;;;;;;4999239;28;20048;-71
2022/06/10 12:05:25;;;;;;;0.00;0.00;;;19.90;99.90;;;;;;4999600;28;20045;-71
2022/06/10 12:08:25;;;;;;;0.00;0.00;;;19.90;99.90;;;;;;5004032;28;20060;-70
2022/06/10 12:11:12;;;;;;;0.00;0.00;;;20.00;99.90;;;;;;5019209;28;20053;-71
2022/06/10 12:13:59;;;;;;;0.05;0.05;;;20.00;99.90;;;;;;5018891;28;20081;-70
2022/06/10 12:16:26;;;;;;;0.00;0.00;;;20.00;99.90;;;;;;5018073;28;20117;-71
2022/06/10 12:18:53;;;;;;;0.10;0.10;;;20.00;99.90;;;;;;5019177;28;20059;-70
2022/06/10 12:21:24;;;;;;;0.10;0.10;;;20.20;99.90;;;;;;5017803;28;20408;-70
2022/06/10 12:23:50;;;;;;;0.10;0.10;;;20.40;99.90;;;;;;5018739;28;20178;-70
2022/06/10 12:26:50;;;;;;;0.00;0.00;;;20.50;99.90;;;;;;5015659;28;20042;-70
2022/06/10 12:29:50;;;;;;;0.13;0.00;;;20.60;99.90;;;;;;5017434;28;20088;-67
2022/06/10 12:32:34;;;;;;;0.00;0.00;;;20.60;99.90;;;;;;5008093;28;20084;-63
2022/06/10 12:35:07;;;;;;;0.10;0.10;;;20.50;99.90;;;;;;5018906;28;20044;-71
2022/06/10 12:37:37;;;;;;;0.05;0.00;;;20.30;99.90;;;;;;5018828;28;20048;-70
2022/06/10 12:40:16;;;;;;;0.00;0.00;;;20.30;99.90;;;;;;5019830;28;20048;-67
2022/06/10 12:42:50;;;;;;;0.05;0.05;;;20.20;99.90;;;;;;5018725;28;20065;-70
2022/06/10 12:45:33;;;;;;;0.15;0.05;;;20.20;99.90;;;;;;5006293;28;20049;-69
2022/06/10 12:48:05;;;;;;;0.43;0.30;;;20.20;99.90;;;;;;5018486;28;20053;-69
2022/06/10 12:50:37;;;;;;;0.98;0.35;;;20.30;99.90;;;;;;5003378;28;20045;-68
2022/06/10 12:53:30;;;;;;;0.00;0.00;;;20.60;99.90;;;;;;5003138;28;20056;-69
2022/06/10 12:55:59;;;;;;;0.00;0.00;;;20.70;99.90;;;;;;5002636;28;20103;-69
2022/06/10 12:58:37;;;;;;;0.00;0.00;;;20.60;99.90;;;;;;5003007;28;20073;-70
2022/06/10 13:01:21;;;;;;;0.10;0.10;;;20.70;99.90;;;;;;5002572;28;20092;-69
2022/06/10 13:03:56;;;;;;;0.20;0.20;;;20.70;99.90;;;;;;5002784;28;20042;-69
2022/06/10 13:06:43;;;;;;;0.10;0.00;;;20.60;99.90;;;;;;5002684;28;20042;-78
2022/06/10 13:09:22;;;;;;;0.00;0.00;;;20.80;99.90;;;;;;5002744;28;20134;-76
2022/06/10 13:12:01;;;;;;;0.10;0.00;;;21.00;99.90;;;;;;5010381;28;20061;-74
2022/06/10 13:14:30;;;;;;;0.20;0.20;;;21.30;99.90;;;;;;5008402;28;20041;-75
2022/06/10 13:16:59;;;;;;;0.00;0.00;;;21.00;99.90;;;;;;5009701;28;20061;-70
2022/06/10 13:19:58;;;;;;;0.32;0.32;;;21.00;99.90;;;;;;5007213;28;20904;-75
2022/06/10 13:22:32;;;;;;;0.25;0.10;;;21.00;99.90;;;;;;5009306;28;20046;-75
2022/06/10 13:24:57;;;;;;;0.00;0.00;;;21.00;99.90;;;;;;5008966;28;20157;-76
2022/06/10 13:27:30;;;;;;;2.72;0.30;;;21.00;99.90;;;;;;5009317;28;20128;-75
2022/06/10 13:29:59;;;;;;;0.00;0.00;;;21.10;99.90;;;;;;5008377;28;20041;-76
2022/06/10 13:32:25;;;;;;;0.10;0.10;;;20.90;99.90;;;;;;5008989;28;20038;-78
2022/06/10 13:34:57;;;;;;;0.40;0.20;;;20.80;99.90;;;;;;5008958;28;20037;-75